sensor_id;sensor_type;location;lat;lon;timestamp;P1;durP1;ratioP1;P2;durP2;ratioP2
23624;SDS011;11989;47.872;12.014;2022-11-13T06:44:15;10.57;;;7.10;;
23624;SDS011;11989;47.872;12.014;2022-11-13T06:46:42;14.38;;;8.23;;
23624;SDS011;11989;47.872;12.014;2022-11-13T06:49:28;10.80;;;8.25;;
23624;SDS011;11989;47.872;12.014;2022-11-13T06:51:54;13.88;;;8.10;;
23624;SDS011;11989;47.872;12.014;2022-11-13T06:54:22;12.82;;;6.72;;
23624;SDS011;11989;47.872;12.014;2022-11-13T06:56:49;12.20;;;7.15;;
23624;SDS011;11989;47.872;12.014;2022-11-13T06:59:15;14.23;;;7.22;;
23624;SDS011;11989;47.872;12.014;2022-11-13T07:01:42;10.07;;;7.40;;
23624;SDS011;11989;47.872;12.014;2022-11-13T07:04:10;11.80;;;7.50;;
23624;SDS011;11989;47.872;12.014;2022-11-13T07:06:38;10.07;;;6.97;;
23624;SDS011;11989;47.872;12.014;2022-11-13T07:09:05;11.63;;;7.40;;
23624;SDS011;11989;47.872;12.014;2022-11-13T07:11:31;14.05;;;7.13;;
23624;SDS011;11989;47.872;12.014;2022-11-13T07:14:01;16.63;;;7.68;;
23624;SDS011;11989;47.872;12.014;2022-11-13T07:16:29;14.05;;;7.30;;
23624;SDS011;11989;47.872;12.014;2022-11-13T07:18:56;11.70;;;7.25;;
23624;SDS011;11989;47.872;12.014;2022-11-13T07:21:24;13.15;;;7.90;;
23624;SDS011;11989;47.872;12.014;2022-11-13T07:23:51;17.88;;;8.18;;
23624;SDS011;11989;47.872;12.014;2022-11-13T07:26:17;16.55;;;8.32;;
23624;SDS011;11989;47.872;12.014;2022-11-13T07:28:44;12.55;;;7.63;;
23624;SDS011;11989;47.872;12.014;2022-11-13T07:31:11;11.75;;;8.05;;
23624;SDS011;11989;47.872;12.014;2022-11-13T07:33:38;14.32;;;7.72;;
23624;SDS011;11989;47.872;12.014;2022-11-13T07:36:06;12.50;;;7.75;;
23624;SDS011;11989;47.872;12.014;2022-11-13T07:38:33;16.10;;;7.43;;
23624;SDS011;11989;47.872;12.014;2022-11-13T07:41:00;16.70;;;7.80;;
23624;SDS011;11989;47.872;12.014;2022-11-13T07:43:28;18.90;;;8.27;;
23624;SDS011;11989;47.872;12.014;2022-11-13T07:45:56;15.10;;;7.28;;
23624;SDS011;11989;47.872;12.014;2022-11-13T07:48:24;11.38;;;7.18;;
23624;SDS011;11989;47.872;12.014;2022-11-13T07:50:52;17.58;;;7.97;;
23624;SDS011;11989;47.872;12.014;2022-11-13T07:53:19;17.88;;;7.93;;
23624;SDS011;11989;47.872;12.014;2022-11-13T07:55:48;12.80;;;7.50;;
23624;SDS011;11989;47.872;12.014;2022-11-13T08:00:44;19.85;;;7.35;;
23624;SDS011;11989;47.872;12.014;2022-11-13T08:03:14;14.23;;;7.22;;
23624;SDS011;11989;47.872;12.014;2022-11-13T08:06:06;24.00;;;8.13;;
23624;SDS011;11989;47.872;12.014;2022-11-13T08:08:33;19.98;;;7.75;;
23624;SDS011;11989;47.872;12.014;2022-11-13T08:11:07;10.70;;;6.78;;
23624;SDS011;11989;47.872;12.014;2022-11-13T08:13:34;17.63;;;7.80;;
23624;SDS011;11989;47.872;12.014;2022-11-13T08:16:03;11.73;;;7.35;;
23624;SDS011;11989;47.872;12.014;2022-11-13T08:18:31;15.52;;;7.53;;
23624;SDS011;11989;47.872;12.014;2022-11-13T08:21:03;10.02;;;7.25;;
23624;SDS011;11989;47.872;12.014;2022-11-13T08:23:30;18.05;;;7.13;;
23624;SDS011;11989;47.872;12.014;2022-11-13T08:26:02;11.10;;;6.47;;
23624;SDS011;11989;47.872;12.014;2022-11-13T08:28:31;13.10;;;7.18;;
23624;SDS011;11989;47.872;12.014;2022-11-13T08:30:59;16.83;;;7.75;;
23624;SDS011;11989;47.872;12.014;2022-11-13T08:33:25;8.57;;;5.88;;
23624;SDS011;11989;47.872;12.014;2022-11-13T08:35:53;17.65;;;7.25;;
23624;SDS011;11989;47.872;12.014;2022-11-13T08:38:21;12.15;;;7.25;;
23624;SDS011;11989;47.872;12.014;2022-11-13T08:40:49;8.93;;;6.47;;
23624;SDS011;11989;47.872;12.014;2022-11-13T08:43:18;11.00;;;6.13;;
23624;SDS011;11989;47.872;12.014;2022-11-13T08:45:44;9.45;;;6.78;;
23624;SDS011;11989;47.872;12.014;2022-11-13T08:48:13;17.23;;;7.20;;
23624;SDS011;11989;47.872;12.014;2022-11-13T08:50:40;11.65;;;6.28;;
23624;SDS011;11989;47.872;12.014;2022-11-13T08:53:07;15.88;;;6.72;;
23624;SDS011;11989;47.872;12.014;2022-11-13T08:55:34;14.90;;;6.70;;
23624;SDS011;11989;47.872;12.014;2022-11-13T08:58:01;10.38;;;6.32;;
23624;SDS011;11989;47.872;12.014;2022-11-13T09:00:30;8.75;;;6.88;;
23624;SDS011;11989;47.872;12.014;2022-11-13T09:02:58;24.13;;;7.82;;
23624;SDS011;11989;47.872;12.014;2022-11-13T09:05:25;14.20;;;7.47;;
23624;SDS011;11989;47.872;12.014;2022-11-13T09:07:57;18.63;;;7.45;;
23624;SDS011;11989;47.872;12.014;2022-11-13T09:10:23;19.83;;;7.18;;
23624;SDS011;11989;47.872;12.014;2022-11-13T09:13:00;17.15;;;7.38;;
23624;SDS011;11989;47.872;12.014;2022-11-13T09:15:27;21.52;;;8.30;;
23624;SDS011;11989;47.872;12.014;2022-11-13T09:17:57;13.07;;;7.57;;
23624;SDS011;11989;47.872;12.014;2022-11-13T09:20:23;19.50;;;8.30;;
23624;SDS011;11989;47.872;12.014;2022-11-13T09:23:00;14.32;;;9.23;;
23624;SDS011;11989;47.872;12.014;2022-11-13T09:25:29;16.55;;;10.30;;
23624;SDS011;11989;47.872;12.014;2022-11-13T09:28:00;13.70;;;8.45;;
23624;SDS011;11989;47.872;12.014;2022-11-13T09:30:28;8.30;;;6.80;;
23624;SDS011;11989;47.872;12.014;2022-11-13T09:32:56;11.40;;;7.57;;
23624;SDS011;11989;47.872;12.014;2022-11-13T09:35:24;12.00;;;6.93;;
23624;SDS011;11989;47.872;12.014;2022-11-13T09:40:34;9.40;;;7.28;;
23624;SDS011;11989;47.872;12.014;2022-11-13T09:43:46;12.52;;;8.68;;
23624;SDS011;11989;47.872;12.014;2022-11-13T09:48:58;9.18;;;7.22;;
23624;SDS011;11989;47.872;12.014;2022-11-13T09:51:28;10.75;;;7.30;;
23624;SDS011;11989;47.872;12.014;2022-11-13T09:53:58;8.95;;;7.35;;
23624;SDS011;11989;47.872;12.014;2022-11-13T09:56:50;11.50;;;8.02;;
23624;SDS011;11989;47.872;12.014;2022-11-13T10:07:26;11.50;;;7.55;;
23624;SDS011;11989;47.872;12.014;2022-11-13T10:12:22;11.50;;;7.75;;
23624;SDS011;11989;47.872;12.014;2022-11-13T10:14:51;9.57;;;7.15;;
23624;SDS011;11989;47.872;12.014;2022-11-13T10:23:12;12.27;;;8.45;;
23624;SDS011;11989;47.872;12.014;2022-11-13T10:25:41;11.40;;;7.45;;
23624;SDS011;11989;47.872;12.014;2022-11-13T10:28:11;10.30;;;8.13;;
23624;SDS011;11989;47.872;12.014;2022-11-13T10:30:42;10.45;;;7.60;;
23624;SDS011;11989;47.872;12.014;2022-11-13T10:33:10;10.30;;;7.82;;
23624;SDS011;11989;47.872;12.014;2022-11-13T10:36:25;11.23;;;8.27;;
23624;SDS011;11989;47.872;12.014;2022-11-13T10:39:15;9.10;;;7.30;;
23624;SDS011;11989;47.872;12.014;2022-11-13T10:41:23;9.73;;;7.82;;
23624;SDS011;11989;47.872;12.014;2022-11-13T10:43:51;11.65;;;8.60;;
23624;SDS011;11989;47.872;12.014;2022-11-13T10:46:22;9.95;;;8.02;;
23624;SDS011;11989;47.872;12.014;2022-11-13T10:48:49;10.88;;;8.35;;
23624;SDS011;11989;47.872;12.014;2022-11-13T10:51:30;11.43;;;8.73;;
23624;SDS011;11989;47.872;12.014;2022-11-13T10:54:10;10.88;;;8.77;;
23624;SDS011;11989;47.872;12.014;2022-11-13T10:56:40;12.07;;;9.60;;
23624;SDS011;11989;47.872;12.014;2022-11-13T11:01:54;12.07;;;8.50;;
23624;SDS011;11989;47.872;12.014;2022-11-13T11:04:21;11.43;;;9.10;;
23624;SDS011;11989;47.872;12.014;2022-11-13T11:06:48;10.60;;;8.90;;
23624;SDS011;11989;47.872;12.014;2022-11-13T11:12:18;12.18;;;9.20;;
23624;SDS011;11989;47.872;12.014;2022-11-13T11:17:36;11.20;;;8.15;;
23624;SDS011;11989;47.872;12.014;2022-11-13T11:20:09;10.85;;;8.23;;
23624;SDS011;11989;47.872;12.014;2022-11-13T11:22:42;11.65;;;8.55;;
23624;SDS011;11989;47.872;12.014;2022-11-13T11:25:25;10.05;;;8.43;;
23624;SDS011;11989;47.872;12.014;2022-11-13T11:27:58;10.40;;;7.97;;
23624;SDS011;11989;47.872;12.014;2022-11-13T11:30:28;10.90;;;8.82;;
23624;SDS011;11989;47.872;12.014;2022-11-13T11:33:01;11.48;;;9.32;;
23624;SDS011;11989;47.872;12.014;2022-11-13T11:36:07;10.73;;;8.70;;
23624;SDS011;11989;47.872;12.014;2022-11-13T11:38:34;11.65;;;9.57;;
23624;SDS011;11989;47.872;12.014;2022-11-13T11:41:09;11.85;;;9.73;;
23624;SDS011;11989;47.872;12.014;2022-11-13T11:43:43;10.45;;;8.95;;
23624;SDS011;11989;47.872;12.014;2022-11-13T11:46:11;11.68;;;9.52;;
23624;SDS011;11989;47.872;12.014;2022-11-13T11:48:38;10.45;;;8.68;;
23624;SDS011;11989;47.872;12.014;2022-11-13T11:56:30;13.57;;;10.32;;
23624;SDS011;11989;47.872;12.014;2022-11-13T12:15:17;10.95;;;9.27;;
23624;SDS011;11989;47.872;12.014;2022-11-13T12:23:10;11.73;;;9.52;;
23624;SDS011;11989;47.872;12.014;2022-11-13T12:28:27;12.77;;;9.55;;
23624;SDS011;11989;47.872;12.014;2022-11-13T12:31:39;12.13;;;9.55;;
23624;SDS011;11989;47.872;12.014;2022-11-13T12:34:26;12.00;;;9.30;;
23624;SDS011;11989;47.872;12.014;2022-11-13T12:36:56;12.52;;;10.13;;
23624;SDS011;11989;47.872;12.014;2022-11-13T12:45:08;12.63;;;10.52;;
23624;SDS011;11989;47.872;12.014;2022-11-13T12:47:48;12.90;;;11.05;;
23624;SDS011;11989;47.872;12.014;2022-11-13T12:50:25;12.07;;;10.02;;
23624;SDS011;11989;47.872;12.014;2022-11-13T12:52:58;12.43;;;9.73;;
23624;SDS011;11989;47.872;12.014;2022-11-13T12:55:30;11.45;;;10.18;;
23624;SDS011;11989;47.872;12.014;2022-11-13T12:58:10;12.45;;;10.60;;
23624;SDS011;11989;47.872;12.014;2022-11-13T13:00:55;12.38;;;11.07;;
23624;SDS011;11989;47.872;12.014;2022-11-13T13:08:53;12.75;;;9.93;;
23624;SDS011;11989;47.872;12.014;2022-11-13T13:17:16;12.05;;;10.32;;
23624;SDS011;11989;47.872;12.014;2022-11-13T13:22:22;13.23;;;11.82;;
23624;SDS011;11989;47.872;12.014;2022-11-13T13:24:57;12.50;;;9.95;;
23624;SDS011;11989;47.872;12.014;2022-11-13T13:27:25;13.40;;;10.55;;
23624;SDS011;11989;47.872;12.014;2022-11-13T13:29:52;12.48;;;10.38;;
